sensor_id;sensor_type;location;lat;lon;timestamp;pressure;altitude;pressure_sealevel;temperature;humidity
84318;BME280;74497;51.654;14.238;2024-01-15T00:02:09;98515.72;;;0.52;100.00
84318;BME280;74497;51.654;14.238;2024-01-15T00:04:39;98507.69;;;0.53;100.00
84318;BME280;74497;51.654;14.238;2024-01-15T00:07:08;98511.16;;;0.54;100.00
84318;BME280;74497;51.654;14.238;2024-01-15T00:09:34;98501.91;;;0.60;100.00
84318;BME280;74497;51.654;14.238;2024-01-15T00:12:00;98490.41;;;0.51;100.00
84318;BME280;74497;51.654;14.238;2024-01-15T00:14:26;98488.34;;;0.54;100.00
84318;BME280;74497;51.654;14.238;2024-01-15T00:16:52;98492.19;;;0.50;100.00
84318;BME280;74497;51.654;14.238;2024-01-15T00:19:23;98494.41;;;0.55;100.00
84318;BME280;74497;51.654;14.238;2024-01-15T00:21:50;98480.75;;;0.51;100.00
84318;BME280;74497;51.654;14.238;2024-01-15T00:24:16;98481.13;;;0.47;100.00
84318;BME280;74497;51.654;14.238;2024-01-15T00:26:41;98478.66;;;0.55;100.00
84318;BME280;74497;51.654;14.238;2024-01-15T00:29:08;98480.06;;;0.59;100.00
84318;BME280;74497;51.654;14.238;2024-01-15T00:31:34;98489.72;;;0.59;100.00
84318;BME280;74497;51.654;14.238;2024-01-15T00:33:59;98478.41;;;0.68;100.00
84318;BME280;74497;51.654;14.238;2024-01-15T00:36:25;98481.31;;;0.65;100.00
84318;BME280;74497;51.654;14.238;2024-01-15T00:38:51;98468.31;;;0.73;100.00
84318;BME280;74497;51.654;14.238;2024-01-15T00:41:17;98470.25;;;0.71;100.00
84318;BME280;74497;51.654;14.238;2024-01-15T00:43:46;98457.09;;;0.61;100.00
84318;BME280;74497;51.654;14.238;2024-01-15T00:46:15;98452.13;;;0.68;100.00
84318;BME280;74497;51.654;14.238;2024-01-15T00:48:40;98443.97;;;0.61;100.00
84318;BME280;74497;51.654;14.238;2024-01-15T00:51:06;98450.19;;;0.70;100.00
84318;BME280;74497;51.654;14.238;2024-01-15T00:53:32;98438.84;;;0.69;100.00
84318;BME280;74497;51.654;14.238;2024-01-15T00:55:58;98442.59;;;0.67;100.00
84318;BME280;74497;51.654;14.238;2024-01-15T00:58:23;98435.38;;;0.69;100.00
84318;BME280;74497;51.654;14.238;2024-01-15T01:00:49;98435.81;;;0.64;100.00
84318;BME280;74497;51.654;14.238;2024-01-15T01:03:15;98437.06;;;0.60;100.00
84318;BME280;74497;51.654;14.238;2024-01-15T01:05:40;98426.81;;;0.57;100.00
84318;BME280;74497;51.654;14.238;2024-01-15T01:08:06;98425.16;;;0.56;100.00
84318;BME280;74497;51.654;14.238;2024-01-15T01:10:32;98420.72;;;0.57;100.00
84318;BME280;74497;51.654;14.238;2024-01-15T01:12:57;98412.59;;;0.60;100.00
84318;BME280;74497;51.654;14.238;2024-01-15T01:15:23;98411.91;;;0.58;100.00
84318;BME280;74497;51.654;14.238;2024-01-15T01:17:50;98409.56;;;0.64;100.00
84318;BME280;74497;51.654;14.238;2024-01-15T01:20:15;98397.66;;;0.60;100.00
84318;BME280;74497;51.654;14.238;2024-01-15T01:22:41;98398.91;;;0.66;100.00
84318;BME280;74497;51.654;14.238;2024-01-15T01:25:07;98398.75;;;0.67;100.00
84318;BME280;74497;51.654;14.238;2024-01-15T01:27:33;98398.59;;;0.69;100.00
84318;BME280;74497;51.654;14.238;2024-01-15T01:29:59;98388.25;;;0.67;100.00
84318;BME280;74497;51.654;14.238;2024-01-15T01:32:25;98387.53;;;0.75;100.00
84318;BME280;74497;51.654;14.238;2024-01-15T01:34:50;98378.00;;;0.74;100.00
84318;BME280;74497;51.654;14.238;2024-01-15T01:37:16;98375.78;;;0.69;100.00
84318;BME280;74497;51.654;14.238;2024-01-15T01:39:42;98376.63;;;0.70;100.00
84318;BME280;74497;51.654;14.238;2024-01-15T01:42:09;98366.41;;;0.67;100.00
84318;BME280;74497;51.654;14.238;2024-01-15T01:44:35;98375.53;;;0.72;100.00
84318;BME280;74497;51.654;14.238;2024-01-15T01:47:01;98356.16;;;0.73;100.00
84318;BME280;74497;51.654;14.238;2024-01-15T01:49:27;98354.91;;;0.77;100.00
84318;BME280;74497;51.654;14.238;2024-01-15T01:51:57;98352.69;;;0.73;100.00
84318;BME280;74497;51.654;14.238;2024-01-15T01:54:24;98346.78;;;0.71;100.00
84318;BME280;74497;51.654;14.238;2024-01-15T01:56:50;98346.06;;;0.78;100.00
84318;BME280;74497;51.654;14.238;2024-01-15T01:59:17;98342.03;;;0.74;100.00
84318;BME280;74497;51.654;14.238;2024-01-15T02:01:44;98341.78;;;0.77;100.00
84318;BME280;74497;51.654;14.238;2024-01-15T02:04:11;98335.97;;;0.74;100.00
84318;BME280;74497;51.654;14.238;2024-01-15T02:06:36;98333.44;;;0.82;100.00
84318;BME280;74497;51.654;14.238;2024-01-15T02:09:03;98329.06;;;0.73;100.00
84318;BME280;74497;51.654;14.238;2024-01-15T02:11:29;98326.16;;;0.57;100.00
84318;BME280;74497;51.654;14.238;2024-01-15T02:13:55;98327.00;;;0.67;100.00
84318;BME280;74497;51.654;14.238;2024-01-15T02:16:20;98334.03;;;0.66;100.00
84318;BME280;74497;51.654;14.238;2024-01-15T02:18:46;98335.28;;;0.72;100.00
84318;BME280;74497;51.654;14.238;2024-01-15T02:21:12;98333.47;;;0.63;100.00
84318;BME280;74497;51.654;14.238;2024-01-15T02:23:38;98330.84;;;0.63;100.00
84318;BME280;74497;51.654;14.238;2024-01-15T02:26:05;98324.22;;;0.68;100.00
84318;BME280;74497;51.654;14.238;2024-01-15T02:28:32;98315.50;;;0.68;100.00
84318;BME280;74497;51.654;14.238;2024-01-15T02:30:58;98316.59;;;0.75;100.00
84318;BME280;74497;51.654;14.238;2024-01-15T02:33:23;98308.72;;;0.75;100.00
84318;BME280;74497;51.654;14.238;2024-01-15T02:35:49;98319.94;;;0.77;100.00
84318;BME280;74497;51.654;14.238;2024-01-15T02:38:18;98314.13;;;0.83;100.00
84318;BME280;74497;51.654;14.238;2024-01-15T02:40:44;98311.59;;;0.81;100.00
84318;BME280;74497;51.654;14.238;2024-01-15T02:43:10;98315.06;;;0.82;100.00
84318;BME280;74497;51.654;14.238;2024-01-15T02:45:36;98318.09;;;0.87;100.00
84318;BME280;74497;51.654;14.238;2024-01-15T02:48:02;98305.13;;;0.76;100.00
84318;BME280;74497;51.654;14.238;2024-01-15T02:50:27;98319.94;;;0.77;100.00
84318;BME280;74497;51.654;14.238;2024-01-15T02:52:53;98320.75;;;0.68;100.00
84318;BME280;74497;51.654;14.238;2024-01-15T02:55:19;98314.84;;;0.66;100.00
84318;BME280;74497;51.654;14.238;2024-01-15T02:57:44;98309.16;;;0.61;100.00
84318;BME280;74497;51.654;14.238;2024-01-15T03:00:10;98307.50;;;0.60;100.00
84318;BME280;74497;51.654;14.238;2024-01-15T03:02:38;98303.94;;;0.51;100.00
84318;BME280;74497;51.654;14.238;2024-01-15T03:05:12;98322.84;;;0.54;100.00
84318;BME280;74497;51.654;14.238;2024-01-15T03:07:37;98327.97;;;0.37;100.00
84318;BME280;74497;51.654;14.238;2024-01-15T03:10:04;98322.44;;;0.30;100.00
84318;BME280;74497;51.654;14.238;2024-01-15T03:12:31;98336.00;;;0.35;100.00
84318;BME280;74497;51.654;14.238;2024-01-15T03:14:57;98330.63;;;0.27;100.00
84318;BME280;74497;51.654;14.238;2024-01-15T03:17:23;98334.06;;;0.28;100.00
84318;BME280;74497;51.654;14.238;2024-01-15T03:19:48;98332.13;;;0.30;100.00
84318;BME280;74497;51.654;14.238;2024-01-15T03:22:16;98331.03;;;0.32;100.00
84318;BME280;74497;51.654;14.238;2024-01-15T03:24:41;98333.53;;;0.34;100.00
84318;BME280;74497;51.654;14.238;2024-01-15T03:27:07;98326.19;;;0.37;100.00
84318;BME280;74497;51.654;14.238;2024-01-15T03:29:33;98328.00;;;0.27;100.00
84318;BME280;74497;51.654;14.238;2024-01-15T03:31:58;98332.94;;;0.30;100.00
84318;BME280;74497;51.654;14.238;2024-01-15T03:34:24;98345.38;;;0.38;100.00
84318;BME280;74497;51.654;14.238;2024-01-15T03:36:50;98343.31;;;0.41;100.00
84318;BME280;74497;51.654;14.238;2024-01-15T03:39:15;98338.50;;;0.46;100.00
84318;BME280;74497;51.654;14.238;2024-01-15T03:41:41;98329.63;;;0.47;100.00
84318;BME280;74497;51.654;14.238;2024-01-15T03:44:07;98337.94;;;0.52;100.00
84318;BME280;74497;51.654;14.238;2024-01-15T03:46:32;98337.50;;;0.57;100.00
84318;BME280;74497;51.654;14.238;2024-01-15T03:48:58;98337.09;;;0.52;100.00
84318;BME280;74497;51.654;14.238;2024-01-15T03:51:24;98325.06;;;0.49;100.00
84318;BME280;74497;51.654;14.238;2024-01-15T03:53:50;98323.00;;;0.53;100.00
84318;BME280;74497;51.654;14.238;2024-01-15T03:56:15;98326.72;;;0.50;100.00
84318;BME280;74497;51.654;14.238;2024-01-15T03:58:41;98329.34;;;0.50;100.00
84318;BME280;74497;51.654;14.238;2024-01-15T04:01:10;98339.59;;;0.53;100.00
84318;BME280;74497;51.654;14.238;2024-01-15T04:03:36;98338.63;;;0.54;100.00
84318;BME280;74497;51.654;14.238;2024-01-15T04:06:03;98331.84;;;0.52;100.00
84318;BME280;74497;51.654;14.238;2024-01-15T04:08:28;98338.19;;;0.49;100.00
84318;BME280;74497;51.654;14.238;2024-01-15T04:10:54;98326.16;;;0.57;100.00
84318;BME280;74497;51.654;14.238;2024-01-15T04:13:20;98329.91;;;0.54;100.00
84318;BME280;74497;51.654;14.238;2024-01-15T04:15:46;98333.66;;;0.51;100.00
84318;BME280;74497;51.654;14.238;2024-01-15T04:18:12;98319.81;;;0.59;100.00
84318;BME280;74497;51.654;14.238;2024-01-15T04:20:37;98329.34;;;0.60;100.00
84318;BME280;74497;51.654;14.238;2024-01-15T04:23:04;98331.00;;;0.61;100.00
84318;BME280;74497;51.654;14.238;2024-01-15T04:25:30;98320.09;;;0.56;100.00
84318;BME280;74497;51.654;14.238;2024-01-15T04:27:56;98323.53;;;0.57;100.00
84318;BME280;74497;51.654;14.238;2024-01-15T04:30:21;98323.41;;;0.58;100.00
84318;BME280;74497;51.654;14.238;2024-01-15T04:32:47;98321.06;;;0.55;100.00
84318;BME280;74497;51.654;14.238;2024-01-15T04:35:13;98308.63;;;0.47;100.00
84318;BME280;74497;51.654;14.238;2024-01-15T04:37:39;98317.75;;;0.53;100.00
84318;BME280;74497;51.654;14.238;2024-01-15T04:40:06;98306.13;;;0.56;100.00
84318;BME280;74497;51.654;14.238;2024-01-15T04:42:32;98314.00;;;0.56;100.00
84318;BME280;74497;51.654;14.238;2024-01-15T04:44:57;98313.03;;;0.57;100.00
84318;BME280;74497;51.654;14.238;2024-01-15T04:47:23;98304.88;;;0.60;100.00
84318;BME280;74497;51.654;14.238;2024-01-15T04:49:49;98305.97;;;0.57;100.00
84318;BME280;74497;51.654;14.238;2024-01-15T04:52:15;98297.72;;;0.52;100.00
84318;BME280;74497;51.654;14.238;2024-01-15T04:54:40;98302.53;;;0.57;100.00
84318;BME280;74497;51.654;14.238;2024-01-15T04:57:06;98299.91;;;0.57;100.00
84318;BME280;74497;51.654;14.238;2024-01-15T04:59:32;98291.34;;;0.54;100.00
84318;BME280;74497;51.654;14.238;2024-01-15T05:01:57;98292.72;;;0.49;100.00
84318;BME280;74497;51.654;14.238;2024-01-15T05:04:23;98287.75;;;0.46;100.00
84318;BME280;74497;51.654;14.238;2024-01-15T05:06:50;98289.13;;;0.50;100.00
84318;BME280;74497;51.654;14.238;2024-01-15T05:09:16;98281.13;;;0.42;100.00
84318;BME280;74497;51.654;14.238;2024-01-15T05:11:43;98285.41;;;0.43;100.00
84318;BME280;74497;51.654;14.238;2024-01-15T05:14:09;98281.53;;;0.47;100.00
84318;BME280;74497;51.654;14.238;2024-01-15T05:16:37;98281.41;;;0.48;100.00
84318;BME280;74497;51.654;14.238;2024-01-15T05:19:03;98280.72;;;0.46;100.00
84318;BME280;74497;51.654;14.238;2024-01-15T05:21:28;98273.50;;;0.48;100.00
84318;BME280;74497;51.654;14.238;2024-01-15T05:23:54;98277.25;;;0.46;100.00
84318;BME280;74497;51.654;14.238;2024-01-15T05:26:20;98277.13;;;0.47;100.00
84318;BME280;74497;51.654;14.238;2024-01-15T05:28:45;98273.50;;;0.48;100.00
84318;BME280;74497;51.654;14.238;2024-01-15T05:31:11;98286.66;;;0.48;100.00
84318;BME280;74497;51.654;14.238;2024-01-15T05:33:37;98268.13;;;0.50;100.00
84318;BME280;74497;51.654;14.238;2024-01-15T05:36:03;98272.53;;;0.49;100.00
84318;BME280;74497;51.654;14.238;2024-01-15T05:38:28;98275.19;;;0.40;100.00
84318;BME280;74497;51.654;14.238;2024-01-15T05:40:54;98270.88;;;0.48;100.00
84318;BME280;74497;51.654;14.238;2024-01-15T05:43:20;98274.75;;;0.44;100.00
84318;BME280;74497;51.654;14.238;2024-01-15T05:45:45;98273.81;;;0.45;100.00
84318;BME280;74497;51.654;14.238;2024-01-15T05:48:12;98275.72;;;0.43;100.00
84318;BME280;74497;51.654;14.238;2024-01-15T05:50:38;98276.84;;;0.41;100.00
84318;BME280;74497;51.654;14.238;2024-01-15T05:53:04;98285.41;;;0.43;100.00
84318;BME280;74497;51.654;14.238;2024-01-15T05:55:29;98291.06;;;0.48;100.00
84318;BME280;74497;51.654;14.238;2024-01-15T05:57:55;98296.19;;;0.49;100.00
84318;BME280;74497;51.654;14.238;2024-01-15T06:00:21;98299.09;;;0.46;100.00
84318;BME280;74497;51.654;14.238;2024-01-15T06:02:47;98287.06;;;0.53;100.00
84318;BME280;74497;51.654;14.238;2024-01-15T06:05:13;98280.44;;;0.40;100.00
84318;BME280;74497;51.654;14.238;2024-01-15T06:07:38;98286.38;;;0.42;100.00
84318;BME280;74497;51.654;14.238;2024-01-15T06:10:04;98289.00;;;0.42;100.00
84318;BME280;74497;51.654;14.238;2024-01-15T06:12:30;98283.50;;;0.45;100.00
84318;BME280;74497;51.654;14.238;2024-01-15T06:14:57;98287.63;;;0.47;100.00
84318;BME280;74497;51.654;14.238;2024-01-15T06:17:23;98278.25;;;0.45;100.00
84318;BME280;74497;51.654;14.238;2024-01-15T06:19:48;98289.00;;;0.42;100.00
84318;BME280;74497;51.654;14.238;2024-01-15T06:22:14;98291.22;;;0.37;100.00
84318;BME280;74497;51.654;14.238;2024-01-15T06:24:40;98287.66;;;0.09;100.00
84318;BME280;74497;51.654;14.238;2024-01-15T06:27:05;98295.91;;;0.04;100.00
84318;BME280;74497;51.654;14.238;2024-01-15T06:29:31;98296.06;;;0.03;100.00
84318;BME280;74497;51.654;14.238;2024-01-15T06:31:57;98286.97;;;0.07;100.00
84318;BME280;74497;51.654;14.238;2024-01-15T06:34:22;98293.97;;;0.06;100.00
84318;BME280;74497;51.654;14.238;2024-01-15T06:36:48;98270.50;;;0.05;100.00
84318;BME280;74497;51.654;14.238;2024-01-15T06:39:14;98268.28;;;0.10;100.00
84318;BME280;74497;51.654;14.238;2024-01-15T06:41:40;98284.03;;;0.10;100.00
84318;BME280;74497;51.654;14.238;2024-01-15T06:44:10;98284.72;;;0.12;100.00
84318;BME280;74497;51.654;14.238;2024-01-15T06:46:36;98276.16;;;0.10;100.00
84318;BME280;74497;51.654;14.238;2024-01-15T06:49:02;98268.31;;;0.19;100.00
84318;BME280;74497;51.654;14.238;2024-01-15T06:51:29;98252.00;;;0.16;100.00
84318;BME280;74497;51.654;14.238;2024-01-15T06:53:54;98257.25;;;0.16;100.00
84318;BME280;74497;51.654;14.238;2024-01-15T06:56:20;98278.94;;;0.18;100.00
84318;BME280;74497;51.654;14.238;2024-01-15T06:58:46;98271.63;;;0.21;100.00
84318;BME280;74497;51.654;14.238;2024-01-15T07:01:12;98271.06;;;0.28;100.00
84318;BME280;74497;51.654;14.238;2024-01-15T07:03:38;98273.84;;;0.26;100.00
84318;BME280;74497;51.654;14.238;2024-01-15T07:06:03;98259.59;;;0.29;100.00
84318;BME280;74497;51.654;14.238;2024-01-15T07:08:29;98266.22;;;0.33;100.00
84318;BME280;74497;51.654;14.238;2024-01-15T07:10:55;98273.53;;;0.39;100.00
84318;BME280;74497;51.654;14.238;2024-01-15T07:13:21;98281.94;;;0.42;100.00
84318;BME280;74497;51.654;14.238;2024-01-15T07:15:46;98285.41;;;0.43;100.00
84318;BME280;74497;51.654;14.238;2024-01-15T07:18:12;98281.94;;;0.42;100.00
84318;BME280;74497;51.654;14.238;2024-01-15T07:20:38;98286.38;;;0.42;100.00
84318;BME280;74497;51.654;14.238;2024-01-15T07:23:04;98296.75;;;0.43;100.00
84318;BME280;74497;51.654;14.238;2024-01-15T07:25:29;98293.13;;;0.44;100.00
84318;BME280;74497;51.654;14.238;2024-01-15T07:27:55;98292.88;;;0.47;100.00
84318;BME280;74497;51.654;14.238;2024-01-15T07:30:21;98285.56;;;0.41;100.00
84318;BME280;74497;51.654;14.238;2024-01-15T07:32:47;98293.56;;;0.49;100.00
84318;BME280;74497;51.654;14.238;2024-01-15T07:35:14;98297.28;;;0.47;100.00
84318;BME280;74497;51.654;14.238;2024-01-15T07:37:40;98300.59;;;0.49;100.00
84318;BME280;74497;51.654;14.238;2024-01-15T07:40:07;98308.34;;;0.50;100.00
84318;BME280;74497;51.654;14.238;2024-01-15T07:42:34;98308.34;;;0.60;100.00
84318;BME280;74497;51.654;14.238;2024-01-15T07:45:00;98314.72;;;0.58;100.00
84318;BME280;74497;51.654;14.238;2024-01-15T07:47:26;98316.63;;;0.56;100.00
84318;BME280;74497;51.654;14.238;2024-01-15T07:49:53;98319.00;;;0.49;100.00
84318;BME280;74497;51.654;14.238;2024-01-15T07:52:19;98322.84;;;0.54;100.00
84318;BME280;74497;51.654;14.238;2024-01-15T07:54:45;98327.44;;;0.52;100.00
84318;BME280;74497;51.654;14.238;2024-01-15T07:57:11;98312.75;;;0.60;100.00
84318;BME280;74497;51.654;14.238;2024-01-15T07:59:36;98320.78;;;0.58;100.00
84318;BME280;74497;51.654;14.238;2024-01-15T08:02:02;98312.75;;;0.60;100.00
84318;BME280;74497;51.654;14.238;2024-01-15T08:04:28;98316.06;;;0.62;100.00
84318;BME280;74497;51.654;14.238;2024-01-15T08:06:54;98319.66;;;0.70;100.00
84318;BME280;74497;51.654;14.238;2024-01-15T08:09:20;98310.94;;;0.70;100.00
84318;BME280;74497;51.654;14.238;2024-01-15T08:11:45;98322.00;;;0.73;100.00
84318;BME280;74497;51.654;14.238;2024-01-15T08:14:11;98299.75;;;0.68;100.00
84318;BME280;74497;51.654;14.238;2024-01-15T08:16:37;98310.41;;;0.66;100.00
84318;BME280;74497;51.654;14.238;2024-01-15T08:19:03;98295.47;;;0.67;100.00
84318;BME280;74497;51.654;14.238;2024-01-15T08:21:29;98313.16;;;0.74;100.00
84318;BME280;74497;51.654;14.238;2024-01-15T08:23:59;98301.66;;;0.75;100.00
84318;BME280;74497;51.654;14.238;2024-01-15T08:26:25;98315.91;;;0.73;100.00
84318;BME280;74497;51.654;14.238;2024-01-15T08:28:51;98324.94;;;0.70;100.00
84318;BME280;74497;51.654;14.238;2024-01-15T08:31:17;98323.81;;;0.73;100.00
84318;BME280;74497;51.654;14.238;2024-01-15T08:33:43;98322.41;;;0.69;100.00
84318;BME280;74497;51.654;14.238;2024-01-15T08:36:09;98321.44;;;0.70;100.00
84318;BME280;74497;51.654;14.238;2024-01-15T08:38:35;98334.88;;;0.76;100.00
84318;BME280;74497;51.654;14.238;2024-01-15T08:41:01;98318.66;;;0.81;100.00
84318;BME280;74497;51.654;14.238;2024-01-15T08:43:27;98316.59;;;0.75;100.00
84318;BME280;74497;51.654;14.238;2024-01-15T08:45:53;98325.56;;;0.82;100.00
84318;BME280;74497;51.654;14.238;2024-01-15T08:48:19;98330.16;;;0.80;100.00
84318;BME280;74497;51.654;14.238;2024-01-15T08:50:45;98339.28;;;0.86;100.00
84318;BME280;74497;51.654;14.238;2024-01-15T08:53:13;98352.56;;;0.84;100.00
84318;BME280;74497;51.654;14.238;2024-01-15T08:55:39;98341.22;;;0.74;100.00
84318;BME280;74497;51.654;14.238;2024-01-15T08:58:05;98337.22;;;0.70;100.00
84318;BME280;74497;51.654;14.238;2024-01-15T09:00:31;98333.47;;;0.63;100.00
84318;BME280;74497;51.654;14.238;2024-01-15T09:02:57;98331.31;;;0.58;100.00
84318;BME280;74497;51.654;14.238;2024-01-15T09:05:23;98336.13;;;0.72;100.00
84318;BME280;74497;51.654;14.238;2024-01-15T09:07:48;98350.06;;;0.73;100.00
84318;BME280;74497;51.654;14.238;2024-01-15T09:10:14;98343.59;;;0.58;100.00
84318;BME280;74497;51.654;14.238;2024-01-15T09:12:40;98348.16;;;0.56;100.00
84318;BME280;74497;51.654;14.238;2024-01-15T09:15:06;98345.25;;;0.59;100.00
84318;BME280;74497;51.654;14.238;2024-01-15T09:17:32;98343.59;;;0.58;100.00
84318;BME280;74497;51.654;14.238;2024-01-15T09:19:57;98330.47;;;0.48;100.00
84318;BME280;74497;51.654;14.238;2024-01-15T09:22:23;98334.22;;;0.45;100.00
84318;BME280;74497;51.654;14.238;2024-01-15T09:24:50;98346.38;;;0.46;100.00
84318;BME280;74497;51.654;14.238;2024-01-15T09:27:15;98347.34;;;0.65;100.00
84318;BME280;74497;51.654;14.238;2024-01-15T09:29:41;98356.94;;;0.93;100.00
84318;BME280;74497;51.654;14.238;2024-01-15T09:32:08;98358.75;;;0.93;100.00
84318;BME280;74497;51.654;14.238;2024-01-15T09:34:34;98363.78;;;0.47;100.00
84318;BME280;74497;51.654;14.238;2024-01-15T09:37:00;98378.81;;;0.07;100.00
84318;BME280;74497;51.654;14.238;2024-01-15T09:39:27;98394.13;;;0.11;100.00
84318;BME280;74497;51.654;14.238;2024-01-15T09:41:56;98391.22;;;0.05;100.00
84318;BME280;74497;51.654;14.238;2024-01-15T09:44:23;98388.22;;;0.09;100.00
84318;BME280;74497;51.654;14.238;2024-01-15T09:46:49;98385.72;;;0.08;100.00
84318;BME280;74497;51.654;14.238;2024-01-15T09:49:18;98394.44;;;0.18;100.00
84318;BME280;74497;51.654;14.238;2024-01-15T09:51:44;98391.53;;;0.31;100.00
84318;BME280;74497;51.654;14.238;2024-01-15T09:54:10;98390.56;;;0.32;100.00
84318;BME280;74497;51.654;14.238;2024-01-15T09:56:39;98363.50;;;0.41;100.00
84318;BME280;74497;51.654;14.238;2024-01-15T09:59:05;98377.34;;;0.52;100.00
84318;BME280;74497;51.654;14.238;2024-01-15T10:01:32;98370.81;;;0.57;100.00
84318;BME280;74497;51.654;14.238;2024-01-15T10:03:58;98370.97;;;0.65;100.00
84318;BME280;74497;51.654;14.238;2024-01-15T10:06:26;98370.81;;;0.66;100.00
84318;BME280;74497;51.654;14.238;2024-01-15T10:08:53;98359.63;;;0.74;100.00
84318;BME280;74497;51.654;14.238;2024-01-15T10:11:19;98358.78;;;0.83;100.00
84318;BME280;74497;51.654;14.238;2024-01-15T10:13:46;98347.97;;;0.86;100.00
84318;BME280;74497;51.654;14.238;2024-01-15T10:16:12;98345.91;;;0.90;100.00
84318;BME280;74497;51.654;14.238;2024-01-15T10:18:38;98346.19;;;0.87;100.00
84318;BME280;74497;51.654;14.238;2024-01-15T10:21:07;98344.22;;;0.89;100.00
84318;BME280;74497;51.654;14.238;2024-01-15T10:23:34;98340.22;;;0.94;100.00
84318;BME280;74497;51.654;14.238;2024-01-15T10:26:00;98340.50;;;0.91;100.00
84318;BME280;74497;51.654;14.238;2024-01-15T10:28:26;98342.00;;;0.94;100.00
84318;BME280;74497;51.654;14.238;2024-01-15T10:30:54;98337.31;;;0.97;100.00
84318;BME280;74497;51.654;14.238;2024-01-15T10:33:23;98347.09;;;1.05;100.00
84318;BME280;74497;51.654;14.238;2024-01-15T10:35:55;98340.06;;;1.05;100.00
84318;BME280;74497;51.654;14.238;2024-01-15T10:38:22;98326.75;;;1.07;100.00
84318;BME280;74497;51.654;14.238;2024-01-15T10:40:51;98333.97;;;1.05;100.00
84318;BME280;74497;51.654;14.238;2024-01-15T10:43:17;98325.66;;;1.10;100.00
84318;BME280;74497;51.654;14.238;2024-01-15T10:45:47;98324.00;;;1.08;100.00
84318;BME280;74497;51.654;14.238;2024-01-15T10:48:13;98339.31;;;1.13;100.00
84318;BME280;74497;51.654;14.238;2024-01-15T10:50:39;98323.69;;;1.12;100.00
84318;BME280;74497;51.654;14.238;2024-01-15T10:53:05;98328.38;;;1.18;100.00
84318;BME280;74497;51.654;14.238;2024-01-15T10:55:35;98322.56;;;1.14;100.00
84318;BME280;74497;51.654;14.238;2024-01-15T10:58:02;98332.28;;;1.14;100.00
84318;BME280;74497;51.654;14.238;2024-01-15T11:00:29;98325.91;;;1.16;100.00
84318;BME280;74497;51.654;14.238;2024-01-15T11:02:56;98324.50;;;1.22;100.00
84318;BME280;74497;51.654;14.238;2024-01-15T11:05:22;98339.41;;;1.31;100.00
84318;BME280;74497;51.654;14.238;2024-01-15T11:07:49;98343.03;;;1.30;100.00
84318;BME280;74497;51.654;14.238;2024-01-15T11:13:23;98323.47;;;1.32;100.00
84318;BME280;74497;51.654;14.238;2024-01-15T11:16:09;98310.34;;;1.32;100.00
84318;BME280;74497;51.654;14.238;2024-01-15T11:18:40;98310.88;;;1.36;100.00
84318;BME280;74497;51.654;14.238;2024-01-15T11:23:42;98312.16;;;1.59;100.00
84318;BME280;74497;51.654;14.238;2024-01-15T11:26:35;98315.22;;;1.55;100.00
84318;BME280;74497;51.654;14.238;2024-01-15T11:29:03;98321.81;;;1.41;100.00
84318;BME280;74497;51.654;14.238;2024-01-15T11:34:05;98322.56;;;1.24;100.00
84318;BME280;74497;51.654;14.238;2024-01-15T11:42:03;98325.22;;;1.14;100.00
84318;BME280;74497;51.654;14.238;2024-01-15T11:44:29;98317.53;;;0.93;100.00
84318;BME280;74497;51.654;14.238;2024-01-15T11:47:00;98303.25;;;1.05;100.00
84318;BME280;74497;51.654;14.238;2024-01-15T11:49:59;98313.34;;;1.10;100.00
84318;BME280;74497;51.654;14.238;2024-01-15T11:52:33;98308.91;;;1.11;100.00
84318;BME280;74497;51.654;14.238;2024-01-15T11:55:11;98309.31;;;1.16;100.00
84318;BME280;74497;51.654;14.238;2024-01-15T11:57:50;98309.25;;;1.25;100.00
84318;BME280;74497;51.654;14.238;2024-01-15T12:00:16;98315.16;;;1.37;100.00
84318;BME280;74497;51.654;14.238;2024-01-15T12:02:45;98318.88;;;1.44;100.00
84318;BME280;74497;51.654;14.238;2024-01-15T12:05:15;98314.00;;;1.49;100.00
84318;BME280;74497;51.654;14.238;2024-01-15T12:07:42;98313.03;;;1.50;100.00
84318;BME280;74497;51.654;14.238;2024-01-15T12:10:11;98299.03;;;1.50;100.00
84318;BME280;74497;51.654;14.238;2024-01-15T12:15:03;98288.41;;;1.69;100.00
84318;BME280;74497;51.654;14.238;2024-01-15T12:17:29;98303.28;;;1.60;100.00
84318;BME280;74497;51.654;14.238;2024-01-15T12:19:56;98292.06;;;1.58;100.00
84318;BME280;74497;51.654;14.238;2024-01-15T12:22:22;98291.19;;;1.68;100.00
84318;BME280;74497;51.654;14.238;2024-01-15T12:24:47;98299.97;;;1.58;100.00
84318;BME280;74497;51.654;14.238;2024-01-15T12:27:13;98299.09;;;1.68;100.00
84318;BME280;74497;51.654;14.238;2024-01-15T12:29:39;98288.25;;;1.71;100.00
84318;BME280;74497;51.654;14.238;2024-01-15T12:32:05;98285.78;;;1.69;100.00
84318;BME280;74497;51.654;14.238;2024-01-15T12:34:31;98291.41;;;1.56;100.00
84318;BME280;74497;51.654;14.238;2024-01-15T12:36:58;98274.78;;;1.56;100.00
84318;BME280;74497;51.654;14.238;2024-01-15T12:39:24;98278.25;;;1.56;100.00
84318;BME280;74497;51.654;14.238;2024-01-15T12:41:51;98283.59;;;1.65;100.00
84318;BME280;74497;51.654;14.238;2024-01-15T12:44:17;98281.09;;;1.63;100.00
84318;BME280;74497;51.654;14.238;2024-01-15T12:46:42;98285.38;;;1.64;100.00
84318;BME280;74497;51.654;14.238;2024-01-15T12:49:08;98292.41;;;1.73;100.00
84318;BME280;74497;51.654;14.238;2024-01-15T12:51:34;98287.34;;;1.62;100.00
84318;BME280;74497;51.654;14.238;2024-01-15T12:54:00;98297.72;;;1.63;100.00
84318;BME280;74497;51.654;14.238;2024-01-15T12:56:25;98295.69;;;1.57;100.00
84318;BME280;74497;51.654;14.238;2024-01-15T12:58:51;98293.44;;;1.62;100.00
84318;BME280;74497;51.654;14.238;2024-01-15T13:01:17;98295.59;;;1.49;100.00
84318;BME280;74497;51.654;14.238;2024-01-15T13:03:43;98313.22;;;1.39;100.00